Terminal Aerodrome Forecast
Issued by NWS Atlanta, GA

Home | Current Version | Previous Version | Text Only | Print | Product List | Glossary On
Versions: 1 2 3 4 5 6 7 8 9 10 11 12 13 14 15 16 17 18 19 20 21 22 23 24 25 26 27 28 29 30 31 32 33 34 35 36 37 38 39 40
000
FTUS42 KFFC 240933 AAB
TAFATL
TAF AMD
KATL 240933Z 2410/2512 00000KT P6SM SCT250
     FM241200 23003KT P6SM SCT250
     FM241500 24005KT P6SM SCT035
     FM241800 22007KT P6SM VCSH SCT050 PROB30 2421/2424 4SM TSRA
      BKN040CB
     FM250200 24003KT P6SM SCT250=

USA.gov is the U.S. government's official web portal to all federal, state and local government web resources and services.